createdAt,value
2016-03-19T00:00:49.142Z,0
2016-03-19T00:01:49.114Z,0
2016-03-19T00:02:49.116Z,0
2016-03-19T00:03:49.134Z,0
2016-03-19T00:04:49.153Z,0
2016-03-19T00:05:49.092Z,0
2016-03-19T00:06:49.142Z,0
2016-03-19T00:07:49.097Z,0
2016-03-19T00:08:49.085Z,0
2016-03-19T00:09:49.072Z,0
2016-03-19T00:10:49.091Z,0
2016-03-19T00:11:48.905Z,0
2016-03-19T00:12:49.064Z,0
2016-03-19T00:13:49.083Z,0
2016-03-19T00:14:49.069Z,0
2016-03-19T00:15:49.041Z,0
2016-03-19T00:16:49.044Z,0
2016-03-19T00:17:48.999Z,0
2016-03-19T00:18:49.050Z,0
2016-03-19T00:19:49.005Z,0
2016-03-19T00:20:49.024Z,0
2016-03-19T00:21:49.026Z,0
2016-03-19T00:22:48.982Z,0
2016-03-19T00:23:48.985Z,0
2016-03-19T00:24:48.957Z,0
2016-03-19T00:25:48.990Z,0
2016-03-19T00:26:48.696Z,0
2016-03-19T00:27:48.965Z,0
2016-03-19T00:28:48.951Z,0
2016-03-19T00:29:48.970Z,0
2016-03-19T00:30:48.942Z,0
2016-03-19T00:31:48.913Z,0
2016-03-19T00:32:48.947Z,0
2016-03-19T00:33:48.918Z,0
2016-03-19T00:34:48.921Z,0
2016-03-19T00:35:48.876Z,0
2016-03-19T00:36:48.926Z,0
2016-03-19T00:37:48.881Z,0
2016-03-19T00:38:48.870Z,0
2016-03-19T00:39:48.919Z,0
2016-03-19T00:40:48.906Z,0
2016-03-19T00:41:48.971Z,0
2016-03-19T00:42:48.817Z,0
2016-03-19T00:43:48.835Z,0
2016-03-19T00:44:48.823Z,0
2016-03-19T00:45:48.858Z,0
2016-03-19T00:46:49.344Z,0
2016-03-19T00:48:03.613Z,0
2016-03-19T00:48:48.786Z,0
2016-03-19T00:49:48.805Z,0
2016-03-19T00:50:50.449Z,0
2016-03-19T00:51:49.983Z,0
2016-03-19T00:52:49.376Z,0
2016-03-19T00:53:49.597Z,0
2016-03-19T00:54:48.772Z,0
2016-03-19T00:56:49.262Z,0
2016-03-19T00:57:48.749Z,0
2016-03-19T00:59:03.407Z,0
2016-03-19T00:59:52.816Z,0
2016-03-19T01:01:05.804Z,0
2016-03-19T01:01:49.196Z,0
2016-03-19T01:02:49.278Z,0
2016-03-19T01:03:49.280Z,0
2016-03-19T01:04:48.690Z,0
2016-03-19T01:05:48.692Z,0
2016-03-19T01:06:48.679Z,0
2016-03-19T01:07:48.667Z,0
2016-03-19T01:08:48.675Z,0
2016-03-19T01:09:48.606Z,0
2016-03-19T01:10:48.631Z,0
2016-03-19T01:11:47.796Z,0
2016-03-19T01:12:48.586Z,0
2016-03-19T01:13:48.568Z,0
2016-03-19T01:14:48.567Z,0
2016-03-19T01:15:48.551Z,0
2016-03-19T01:16:48.550Z,0
2016-03-19T01:17:48.581Z,0
2016-03-19T01:18:48.535Z,0
2016-03-19T01:19:48.537Z,0
2016-03-19T01:20:48.507Z,0
2016-03-19T01:21:48.493Z,0
2016-03-19T01:22:48.495Z,0
2016-03-19T01:23:48.325Z,0
2016-03-19T01:24:48.483Z,0
2016-03-19T01:25:48.455Z,0
2016-03-19T01:26:48.504Z,0
2016-03-19T01:27:48.443Z,0
2016-03-19T01:28:48.478Z,0
2016-03-19T01:29:48.449Z,0
2016-03-19T01:30:47.702Z,0
2016-03-19T01:31:48.408Z,0
2016-03-19T01:32:48.410Z,0
2016-03-19T01:33:48.428Z,0
2016-03-19T01:34:48.400Z,0
2016-03-19T01:35:48.419Z,0
2016-03-19T01:36:48.390Z,0
2016-03-19T01:37:48.392Z,0
2016-03-19T01:38:48.364Z,0
2016-03-19T01:39:48.382Z,0
2016-03-19T01:40:48.353Z,0
2016-03-19T01:41:48.356Z,0
2016-03-19T01:42:48.343Z,0
2016-03-19T01:43:48.346Z,0
2016-03-19T01:44:48.317Z,0
2016-03-19T01:45:48.305Z,0
2016-03-19T01:46:48.307Z,0
2016-03-19T01:47:48.326Z,0
2016-03-19T01:48:48.313Z,0
2016-03-19T01:49:48.299Z,0
2016-03-19T01:50:48.162Z,0
2016-03-19T01:51:48.304Z,0
2016-03-19T01:52:48.277Z,0
2016-03-19T01:53:48.138Z,0
2016-03-19T01:54:48.235Z,0
2016-03-19T01:55:48.253Z,0
2016-03-19T01:56:48.225Z,0
2016-03-19T01:57:48.259Z,0
2016-03-19T01:58:48.214Z,0
2016-03-19T01:59:48.234Z,0
2016-03-19T02:00:48.204Z,0
2016-03-19T02:01:48.223Z,0
2016-03-19T02:02:48.209Z,0
2016-03-19T02:03:48.197Z,0
2016-03-19T02:04:48.200Z,0
2016-03-19T02:05:48.984Z,0
2016-03-19T02:06:48.189Z,0
2016-03-19T02:07:48.254Z,0
2016-03-19T02:08:48.226Z,0
2016-03-19T02:09:49.369Z,0
2016-03-19T02:10:49.184Z,0
2016-03-19T02:11:49.547Z,0
2016-03-19T02:12:48.143Z,0
2016-03-19T02:13:48.677Z,0
2016-03-19T02:14:49.101Z,0
2016-03-19T02:15:48.870Z,0
2016-03-19T02:16:48.091Z,0
2016-03-19T02:19:03.877Z,0
2016-03-19T02:19:49.943Z,0
2016-03-19T02:20:48.539Z,0
2016-03-19T02:21:48.104Z,0
2016-03-19T02:22:48.435Z,0
2016-03-19T02:23:48.829Z,0
2016-03-19T02:24:48.065Z,0
2016-03-19T02:25:47.896Z,0
2016-03-19T02:26:48.056Z,0
2016-03-19T02:27:48.043Z,0
2016-03-19T02:28:48.029Z,0
2016-03-19T02:29:48.016Z,0
2016-03-19T02:30:48.019Z,0
2016-03-19T02:31:48.006Z,0
2016-03-19T02:32:47.978Z,0
2016-03-19T02:33:47.981Z,0
2016-03-19T02:34:47.999Z,0
2016-03-19T02:35:47.970Z,0
2016-03-19T02:36:47.972Z,0
2016-03-19T02:37:47.960Z,0
2016-03-19T02:38:47.963Z,0
2016-03-19T02:39:47.966Z,0
2016-03-19T02:40:47.952Z,0
2016-03-19T02:41:47.939Z,0
2016-03-19T02:42:47.911Z,0
2016-03-19T02:43:47.914Z,0
2016-03-19T02:44:47.932Z,0
2016-03-19T02:45:47.903Z,0
2016-03-19T02:46:47.922Z,0
2016-03-19T02:47:47.877Z,0
2016-03-19T02:48:47.943Z,0
2016-03-19T02:49:47.868Z,0
2016-03-19T02:50:47.886Z,0
2016-03-19T02:51:47.857Z,0
2016-03-19T02:52:47.890Z,0
2016-03-19T02:53:47.846Z,0
2016-03-19T02:54:47.849Z,0
2016-03-19T02:55:47.821Z,0
2016-03-19T02:56:47.807Z,0
2016-03-19T02:57:47.810Z,0
2016-03-19T02:58:47.845Z,0
2016-03-19T02:59:47.815Z,0
2016-03-19T03:00:47.804Z,0
2016-03-19T03:01:47.790Z,0
2016-03-19T03:02:47.778Z,0
2016-03-19T03:03:47.780Z,0
2016-03-19T03:04:47.783Z,0
2016-03-19T03:05:47.754Z,0
2016-03-19T03:06:47.756Z,0
2016-03-19T03:07:47.744Z,0
2016-03-19T03:08:47.762Z,0
2016-03-19T03:09:47.749Z,0
2016-03-19T03:10:47.736Z,0
2016-03-19T03:11:47.708Z,0
2016-03-19T03:12:47.711Z,0
2016-03-19T03:13:47.697Z,0
2016-03-19T03:14:47.699Z,0
2016-03-19T03:15:47.733Z,0
2016-03-19T03:16:47.690Z,0
2016-03-19T03:17:47.677Z,0
2016-03-19T03:18:47.648Z,0
2016-03-19T03:19:47.667Z,0
2016-03-19T03:20:47.622Z,0
2016-03-19T03:21:47.640Z,0
2016-03-19T03:22:47.627Z,0
2016-03-19T03:23:47.630Z,0
2016-03-19T03:24:48.258Z,0
2016-03-19T03:25:48.870Z,0
2016-03-19T03:26:47.638Z,0
2016-03-19T03:27:47.610Z,0
2016-03-19T03:28:48.753Z,0
2016-03-19T03:29:48.756Z,0
2016-03-19T03:30:48.196Z,0
2016-03-19T03:31:48.731Z,0
2016-03-19T03:32:47.874Z,0
2016-03-19T03:33:47.626Z,0
2016-03-19T03:34:47.989Z,0
2016-03-19T03:35:47.553Z,0
2016-03-19T03:36:48.572Z,0
2016-03-19T03:38:03.215Z,0
2016-03-19T03:38:48.984Z,0
2016-03-19T03:39:47.673Z,0
2016-03-19T03:40:47.864Z,0
2016-03-19T03:41:48.211Z,0
2016-03-19T03:42:47.667Z,0
2016-03-19T03:43:47.919Z,0
2016-03-19T03:44:47.718Z,0
2016-03-19T03:45:47.658Z,0
2016-03-19T03:46:47.458Z,0
2016-03-19T03:47:47.429Z,0
2016-03-19T03:48:47.432Z,0
2016-03-19T03:49:47.434Z,0
2016-03-19T03:50:47.438Z,0
2016-03-19T03:51:47.409Z,0
2016-03-19T03:52:47.427Z,0
2016-03-19T03:53:47.399Z,0
2016-03-19T03:54:47.417Z,0
2016-03-19T03:55:47.388Z,0
2016-03-19T03:56:47.406Z,0
2016-03-19T03:57:47.379Z,0
2016-03-19T03:58:47.365Z,0
2016-03-19T03:59:47.383Z,0
2016-03-19T04:00:47.339Z,0
2016-03-19T04:01:47.342Z,0
2016-03-19T04:02:47.345Z,0
2016-03-19T04:03:47.316Z,0
2016-03-19T04:04:47.335Z,0
2016-03-19T04:05:47.322Z,0
2016-03-19T04:06:47.339Z,0
2016-03-19T04:07:47.311Z,0
2016-03-19T04:08:47.314Z,0
2016-03-19T04:09:47.286Z,0
2016-03-19T04:10:47.272Z,0
2016-03-19T04:11:47.291Z,0
2016-03-19T04:12:47.261Z,0
2016-03-19T04:13:47.281Z,0
2016-03-19T04:14:47.267Z,0
2016-03-19T04:15:47.255Z,0
2016-03-19T04:16:47.258Z,0
2016-03-19T04:17:47.244Z,0
2016-03-19T04:18:47.216Z,0
2016-03-19T04:19:47.203Z,0
2016-03-19T04:20:47.238Z,0
2016-03-19T04:21:47.193Z,0
2016-03-19T04:22:47.038Z,0
2016-03-19T04:23:47.213Z,0
2016-03-19T04:24:47.169Z,0
2016-03-19T04:25:47.218Z,0
2016-03-19T04:26:47.175Z,0
2016-03-19T04:27:47.162Z,0
2016-03-19T04:28:47.134Z,0
2016-03-19T04:29:47.136Z,0
2016-03-19T04:30:47.139Z,0
2016-03-19T04:31:47.142Z,0
2016-03-19T04:32:47.144Z,0
2016-03-19T04:33:46.959Z,0
2016-03-19T04:34:47.086Z,0
2016-03-19T04:35:46.934Z,0
2016-03-19T04:36:47.092Z,0
2016-03-19T04:37:47.095Z,0
2016-03-19T04:38:47.098Z,0
2016-03-19T04:39:47.053Z,0
2016-03-19T04:40:47.087Z,0
2016-03-19T04:41:47.027Z,0
2016-03-19T04:42:47.047Z,0
2016-03-19T04:43:47.283Z,0
2016-03-19T04:45:01.223Z,0
2016-03-19T04:45:47.022Z,0
2016-03-19T04:46:47.025Z,0
2016-03-19T04:47:49.622Z,0
2016-03-19T04:48:46.999Z,0
2016-03-19T04:49:48.894Z,0
2016-03-19T04:50:48.224Z,0
2016-03-19T04:51:47.899Z,0
2016-03-19T04:52:48.651Z,0
2016-03-19T04:53:46.951Z,0
2016-03-19T04:54:46.969Z,0
2016-03-19T04:56:01.221Z,0
2016-03-19T04:57:01.146Z,0
2016-03-19T04:57:49.837Z,0
2016-03-19T04:58:47.917Z,0
2016-03-19T04:59:48.185Z,0
2016-03-19T05:00:46.907Z,0
2016-03-19T05:01:47.519Z,0
2016-03-19T05:02:46.913Z,0
2016-03-19T05:03:46.899Z,0
2016-03-19T05:04:47.026Z,0
2016-03-19T05:05:46.890Z,5
2016-03-19T05:06:46.876Z,5
2016-03-19T05:07:46.863Z,5
2016-03-19T05:08:46.866Z,5
2016-03-19T05:09:46.822Z,5
2016-03-19T05:10:46.825Z,5
2016-03-19T05:11:46.811Z,5
2016-03-19T05:12:46.815Z,10
2016-03-19T05:13:46.801Z,10
2016-03-19T05:14:46.820Z,10
2016-03-19T05:15:46.806Z,10
2016-03-19T05:16:46.763Z,15
2016-03-19T05:17:46.796Z,15
2016-03-19T05:18:46.783Z,15
2016-03-19T05:19:46.770Z,20
2016-03-19T05:20:46.727Z,20
2016-03-19T05:21:46.760Z,20
2016-03-19T05:22:46.732Z,25
2016-03-19T05:23:46.781Z,25
2016-03-19T05:24:46.753Z,30
2016-03-19T05:25:46.708Z,30
2016-03-19T05:26:46.679Z,35
2016-03-19T05:27:46.683Z,35
2016-03-19T05:28:46.685Z,40
2016-03-19T05:29:46.688Z,40
2016-03-19T05:30:46.690Z,40
2016-03-19T05:31:46.662Z,45
2016-03-19T05:32:46.681Z,45
2016-03-19T05:33:46.636Z,50
2016-03-19T05:34:46.624Z,50
2016-03-19T05:35:46.610Z,55
2016-03-19T05:36:46.629Z,55
2016-03-19T05:37:46.600Z,55
2016-03-19T05:38:46.603Z,60
2016-03-19T05:39:46.575Z,60
2016-03-19T05:40:46.608Z,65
2016-03-19T05:41:46.580Z,65
2016-03-19T05:42:46.566Z,70
2016-03-19T05:43:46.554Z,70
2016-03-19T05:44:46.572Z,75
2016-03-19T05:45:46.559Z,80
2016-03-19T05:46:46.531Z,80
2016-03-19T05:47:46.533Z,85
2016-03-19T05:48:46.552Z,85
2016-03-19T05:49:46.491Z,85
2016-03-19T05:50:46.495Z,90
2016-03-19T05:51:46.497Z,95
2016-03-19T05:52:46.500Z,95
2016-03-19T05:53:46.502Z,95
2016-03-19T05:54:46.458Z,95
2016-03-19T05:55:46.539Z,100
2016-03-19T05:56:46.463Z,110
2016-03-19T05:57:46.357Z,120
2016-03-19T05:58:46.422Z,125
2016-03-19T05:59:46.425Z,130
2016-03-19T06:00:46.443Z,135
2016-03-19T06:01:46.414Z,140
2016-03-19T06:02:46.637Z,150
2016-03-19T06:03:47.889Z,155
2016-03-19T06:04:46.407Z,160
2016-03-19T06:05:47.003Z,160
2016-03-19T06:06:48.756Z,160
2016-03-19T06:07:48.353Z,180
2016-03-19T06:08:48.136Z,195
2016-03-19T06:09:47.390Z,195
2016-03-19T06:10:46.454Z,200
2016-03-19T06:11:46.816Z,200
2016-03-19T06:12:48.523Z,210
2016-03-19T06:13:47.884Z,230
2016-03-19T06:15:00.356Z,210
2016-03-19T06:16:47.877Z,230
2016-03-19T06:17:47.270Z,225
2016-03-19T06:18:46.304Z,245
2016-03-19T06:19:46.291Z,265
2016-03-19T06:20:46.997Z,240
2016-03-19T06:21:46.266Z,230
2016-03-19T06:22:46.283Z,220
2016-03-19T06:23:46.411Z,250
2016-03-19T06:24:46.241Z,215
2016-03-19T06:25:46.245Z,240
2016-03-19T06:26:46.247Z,305
2016-03-19T06:27:46.312Z,255
2016-03-19T06:28:46.221Z,275
2016-03-19T06:29:46.224Z,230
2016-03-19T06:30:46.215Z,220
2016-03-19T06:31:46.201Z,220
2016-03-19T06:32:46.188Z,240
2016-03-19T06:33:46.207Z,235
2016-03-19T06:34:46.193Z,240
2016-03-19T06:35:46.212Z,250
2016-03-19T06:36:46.184Z,255
2016-03-19T06:37:46.170Z,240
2016-03-19T06:38:46.157Z,235
2016-03-19T06:39:46.175Z,240
2016-03-19T06:40:46.148Z,270
2016-03-19T06:41:46.275Z,295
2016-03-19T06:42:46.262Z,285
2016-03-19T06:43:46.156Z,290
2016-03-19T06:44:46.127Z,290
2016-03-19T06:45:46.114Z,300
2016-03-19T06:46:46.132Z,295
2016-03-19T06:47:46.136Z,315
2016-03-19T06:48:46.138Z,330
2016-03-19T06:49:46.109Z,315
2016-03-19T06:50:46.127Z,325
2016-03-19T06:51:46.083Z,340
2016-03-19T06:52:46.367Z,350
2016-03-19T06:53:46.104Z,355
2016-03-19T06:54:46.091Z,350
2016-03-19T06:55:46.078Z,340
2016-03-19T06:56:46.080Z,325
2016-03-19T06:57:45.974Z,315
2016-03-19T06:58:46.040Z,310
2016-03-19T06:59:46.058Z,325
2016-03-19T07:00:46.060Z,335
2016-03-19T07:01:46.032Z,335
2016-03-19T07:02:45.878Z,335
2016-03-19T07:03:46.054Z,340
2016-03-19T07:04:46.056Z,340
2016-03-19T07:05:46.027Z,345
2016-03-19T07:06:46.030Z,365
2016-03-19T07:07:46.001Z,380
2016-03-19T07:08:46.020Z,395
2016-03-19T07:09:46.023Z,390
2016-03-19T07:10:46.025Z,400
2016-03-19T07:11:45.996Z,405
2016-03-19T07:12:46.061Z,415
2016-03-19T07:13:46.001Z,415
2016-03-19T07:14:46.004Z,415
2016-03-19T07:15:45.975Z,425
2016-03-19T07:16:45.979Z,435
2016-03-19T07:17:45.981Z,490
2016-03-19T07:18:45.984Z,545
2016-03-19T07:19:45.971Z,535
2016-03-19T07:20:45.802Z,530
2016-03-19T07:21:46.242Z,535
2016-03-19T07:23:00.151Z,585
2016-03-19T07:23:45.997Z,580
2016-03-19T07:24:45.953Z,805
2016-03-19T07:25:46.972Z,1020
2016-03-19T07:26:47.724Z,840
2016-03-19T07:27:47.602Z,535
2016-03-19T07:28:47.167Z,490
2016-03-19T07:29:46.264Z,515
2016-03-19T07:30:48.813Z,685
2016-03-19T07:31:45.957Z,900
2016-03-19T07:32:45.928Z,545
2016-03-19T07:34:00.384Z,510
2016-03-19T07:34:46.387Z,530
2016-03-19T07:35:49.093Z,830
2016-03-19T07:36:47.642Z,980
2016-03-19T07:37:46.035Z,795
2016-03-19T07:38:46.991Z,1030
2016-03-19T07:39:46.228Z,915
2016-03-19T07:40:45.934Z,805
2016-03-19T07:41:46.326Z,645
2016-03-19T07:42:45.971Z,515
2016-03-19T07:43:45.926Z,550
2016-03-19T07:44:45.960Z,795
2016-03-19T07:45:45.791Z,840
2016-03-19T07:46:45.950Z,840
2016-03-19T07:47:45.922Z,830
2016-03-19T07:48:45.970Z,845
2016-03-19T07:49:45.786Z,770
2016-03-19T07:50:45.945Z,510
2016-03-19T07:51:45.964Z,740
2016-03-19T07:52:45.950Z,845
2016-03-19T07:53:45.953Z,805
2016-03-19T07:54:45.971Z,790
2016-03-19T07:55:45.974Z,745
2016-03-19T07:56:45.976Z,865
2016-03-19T07:57:45.948Z,885
2016-03-19T07:58:45.966Z,860
2016-03-19T07:59:45.969Z,835
2016-03-19T08:00:45.987Z,815
2016-03-19T08:01:45.990Z,850
2016-03-19T08:02:45.993Z,900
2016-03-19T08:03:45.979Z,920
2016-03-19T08:04:45.999Z,910
2016-03-19T08:05:45.985Z,900
2016-03-19T08:06:46.004Z,860
2016-03-19T08:07:45.975Z,760
2016-03-19T08:08:46.009Z,905
2016-03-19T08:09:45.886Z,645
2016-03-19T08:10:45.998Z,405
2016-03-19T08:11:45.986Z,385
2016-03-19T08:12:46.504Z,385
2016-03-19T08:13:46.054Z,380
2016-03-19T08:14:46.010Z,375
2016-03-19T08:15:46.012Z,370
2016-03-19T08:16:46.031Z,370
2016-03-19T08:17:46.033Z,370
2016-03-19T08:18:46.067Z,375
2016-03-19T08:19:46.023Z,370
2016-03-19T08:20:46.042Z,375
2016-03-19T08:21:46.028Z,380
2016-03-19T08:22:46.031Z,380
2016-03-19T08:23:46.019Z,380
2016-03-19T08:24:46.052Z,385
2016-03-19T08:25:46.039Z,395
2016-03-19T08:26:46.058Z,395
2016-03-19T08:27:46.030Z,405
2016-03-19T08:28:46.032Z,415
2016-03-19T08:29:46.034Z,430
2016-03-19T08:30:46.037Z,450
2016-03-19T08:31:46.071Z,465
2016-03-19T08:32:46.027Z,485
2016-03-19T08:33:46.046Z,505
2016-03-19T08:34:46.017Z,510
2016-03-19T08:35:46.035Z,510
2016-03-19T08:36:46.021Z,495
2016-03-19T08:37:46.071Z,480
2016-03-19T08:38:46.027Z,470
2016-03-19T08:39:46.029Z,440
2016-03-19T08:41:14.407Z,410
2016-03-19T08:41:47.488Z,395
2016-03-19T08:42:46.007Z,375
2016-03-19T08:43:46.056Z,365
2016-03-19T08:44:48.637Z,355
2016-03-19T08:45:46.218Z,350
2016-03-19T08:46:46.283Z,355
2016-03-19T08:47:46.036Z,365
2016-03-19T08:48:46.725Z,370
2016-03-19T08:49:46.042Z,395
2016-03-19T08:50:46.700Z,425
2016-03-19T08:51:46.014Z,455
2016-03-19T08:52:47.190Z,490
2016-03-19T08:53:47.724Z,515
2016-03-19T08:54:46.914Z,545
2016-03-19T08:55:46.369Z,580
2016-03-19T08:56:47.342Z,605
2016-03-19T08:57:47.125Z,615
2016-03-19T08:58:46.705Z,620
2016-03-19T08:59:46.241Z,610
2016-03-19T09:00:46.493Z,555
2016-03-19T09:01:46.011Z,500
2016-03-19T09:02:46.029Z,445
2016-03-19T09:03:45.266Z,400
2016-03-19T09:04:46.019Z,360
2016-03-19T09:05:46.021Z,325
2016-03-19T09:06:46.025Z,305
2016-03-19T09:07:46.012Z,290
2016-03-19T09:08:46.030Z,270
2016-03-19T09:09:46.001Z,270
2016-03-19T09:10:46.035Z,270
2016-03-19T09:11:46.006Z,270
2016-03-19T09:12:46.009Z,270
2016-03-19T09:13:45.839Z,270
2016-03-19T09:14:46.031Z,270
2016-03-19T09:15:46.001Z,280
2016-03-19T09:16:46.036Z,290
2016-03-19T09:17:46.023Z,305
2016-03-19T09:18:46.041Z,325
2016-03-19T09:19:45.997Z,340
2016-03-19T09:20:46.046Z,340
2016-03-19T09:21:46.003Z,320
2016-03-19T09:22:46.005Z,300
2016-03-19T09:23:45.992Z,295
2016-03-19T09:24:46.010Z,295
2016-03-19T09:25:46.013Z,300
2016-03-19T09:26:46.016Z,300
2016-03-19T09:27:46.002Z,315
2016-03-19T09:28:46.052Z,330
2016-03-19T09:29:46.008Z,345
2016-03-19T09:30:46.292Z,355
2016-03-19T09:31:45.982Z,375
2016-03-19T09:32:46.016Z,410
2016-03-19T09:33:46.003Z,435
2016-03-19T09:34:45.974Z,455
2016-03-19T09:35:45.993Z,455
2016-03-19T09:36:46.027Z,440
2016-03-19T09:37:45.999Z,425
2016-03-19T09:38:45.970Z,415
2016-03-19T09:39:45.973Z,400
2016-03-19T09:40:46.022Z,370
2016-03-19T09:41:45.978Z,355
2016-03-19T09:42:46.012Z,340
2016-03-19T09:43:45.999Z,320
2016-03-19T09:44:45.845Z,305
2016-03-19T09:45:45.973Z,300
2016-03-19T09:46:45.975Z,295
2016-03-19T09:47:45.979Z,300
2016-03-19T09:48:45.997Z,310
2016-03-19T09:49:45.968Z,320
2016-03-19T09:50:45.987Z,330
2016-03-19T09:51:45.973Z,340
2016-03-19T09:52:45.961Z,345
2016-03-19T09:53:45.994Z,350
2016-03-19T09:54:45.997Z,350
2016-03-19T09:55:46.000Z,360
2016-03-19T09:56:45.955Z,365
2016-03-19T09:57:45.974Z,375
2016-03-19T09:58:45.977Z,380
2016-03-19T09:59:46.605Z,390
2016-03-19T10:00:46.967Z,400
2016-03-19T10:01:45.969Z,405
2016-03-19T10:02:45.988Z,410
2016-03-19T10:03:47.802Z,410
2016-03-19T10:04:46.071Z,405
2016-03-19T10:05:45.949Z,405
2016-03-19T10:06:45.983Z,405
2016-03-19T10:07:46.594Z,405
2016-03-19T10:08:46.738Z,405
2016-03-19T10:09:46.881Z,405
2016-03-19T10:10:46.181Z,405
2016-03-19T10:11:45.949Z,405
2016-03-19T10:12:47.890Z,410
2016-03-19T10:13:47.205Z,415
2016-03-19T10:14:46.209Z,425
2016-03-19T10:15:47.243Z,435
2016-03-19T10:16:45.902Z,450
2016-03-19T10:17:46.779Z,460
2016-03-19T10:18:46.343Z,470
2016-03-19T10:19:46.528Z,480
2016-03-19T10:20:45.869Z,495
2016-03-19T10:21:45.898Z,505
2016-03-19T10:22:45.832Z,505
2016-03-19T10:23:45.861Z,495
2016-03-19T10:24:45.845Z,485
2016-03-19T10:25:45.862Z,475
2016-03-19T10:26:45.863Z,465
2016-03-19T10:27:45.848Z,460
2016-03-19T10:28:45.833Z,455
2016-03-19T10:29:45.803Z,450
2016-03-19T10:30:45.821Z,450
2016-03-19T10:31:45.838Z,440
2016-03-19T10:32:45.809Z,435
2016-03-19T10:33:45.858Z,430
2016-03-19T10:34:45.845Z,425
2016-03-19T10:35:45.847Z,425
2016-03-19T10:36:45.818Z,425
2016-03-19T10:37:45.820Z,430
2016-03-19T10:38:45.823Z,440
2016-03-19T10:39:45.856Z,440
2016-03-19T10:40:45.844Z,445
2016-03-19T10:41:45.830Z,450
2016-03-19T10:42:45.817Z,470
2016-03-19T10:43:45.820Z,480
2016-03-19T10:44:45.823Z,485
2016-03-19T10:45:45.858Z,500
2016-03-19T10:46:46.094Z,510
2016-03-19T10:47:45.831Z,515
2016-03-19T10:48:45.865Z,520
2016-03-19T10:49:45.836Z,525
2016-03-19T10:50:45.855Z,520
2016-03-19T10:51:45.857Z,505
2016-03-19T10:52:45.813Z,485
2016-03-19T10:53:45.816Z,460
2016-03-19T10:54:45.835Z,445
2016-03-19T10:55:45.838Z,430
2016-03-19T10:56:45.824Z,420
2016-03-19T10:57:45.827Z,415
2016-03-19T10:58:45.814Z,415
2016-03-19T10:59:45.817Z,410
2016-03-19T11:00:45.835Z,410
2016-03-19T11:01:45.822Z,405
2016-03-19T11:02:45.825Z,400
2016-03-19T11:03:45.828Z,405
2016-03-19T11:04:45.861Z,405
2016-03-19T11:05:45.833Z,410
2016-03-19T11:06:45.820Z,425
2016-03-19T11:07:45.822Z,440
2016-03-19T11:08:45.809Z,460
2016-03-19T11:09:45.828Z,475
2016-03-19T11:10:45.815Z,490
2016-03-19T11:11:45.864Z,505
2016-03-19T11:12:45.852Z,530
2016-03-19T11:13:45.823Z,540
2016-03-19T11:14:45.810Z,550
2016-03-19T11:15:45.844Z,560
2016-03-19T11:16:45.847Z,565
2016-03-19T11:17:45.849Z,580
2016-03-19T11:19:00.024Z,585
2016-03-19T11:19:45.823Z,585
2016-03-19T11:20:46.264Z,580
2016-03-19T11:21:46.391Z,565
2016-03-19T11:22:46.660Z,555
2016-03-19T11:23:47.849Z,545
2016-03-19T11:24:47.759Z,530
2016-03-19T11:25:46.824Z,520
2016-03-19T11:26:46.701Z,515
2016-03-19T11:27:47.096Z,505
2016-03-19T11:28:48.051Z,505
2016-03-19T11:29:47.038Z,515
2016-03-19T11:30:45.900Z,525
2016-03-19T11:33:03.592Z,530
2016-03-19T11:33:47.642Z,530
2016-03-19T11:34:46.223Z,525
2016-03-19T11:35:46.914Z,510
2016-03-19T11:36:46.260Z,505
2016-03-19T11:37:45.982Z,515
2016-03-19T11:38:46.437Z,530
2016-03-19T11:39:45.862Z,535
2016-03-19T11:40:45.848Z,530
2016-03-19T11:41:45.851Z,520
2016-03-19T11:42:45.869Z,505
2016-03-19T11:43:45.763Z,475
2016-03-19T11:44:45.874Z,450
2016-03-19T11:45:45.846Z,430
2016-03-19T11:46:45.865Z,440
2016-03-19T11:47:45.867Z,445
2016-03-19T11:48:45.855Z,450
2016-03-19T11:49:45.858Z,430
2016-03-19T11:50:45.875Z,410
2016-03-19T11:51:45.924Z,385
2016-03-19T11:52:45.850Z,370
2016-03-19T11:53:45.915Z,360
2016-03-19T11:54:45.886Z,355
2016-03-19T11:55:45.873Z,355
2016-03-19T11:56:45.891Z,360
2016-03-19T11:57:45.941Z,360
2016-03-19T11:58:45.928Z,360
2016-03-19T11:59:45.899Z,360
2016-03-19T12:00:45.871Z,375
2016-03-19T12:01:45.889Z,375
2016-03-19T12:02:45.908Z,375
2016-03-19T12:03:45.739Z,365
2016-03-19T12:04:45.913Z,350
2016-03-19T12:05:45.900Z,330
2016-03-19T12:06:45.887Z,325
2016-03-19T12:07:45.921Z,315
2016-03-19T12:08:45.877Z,305
2016-03-19T12:09:45.880Z,300
2016-03-19T12:10:45.898Z,295
2016-03-19T12:11:45.901Z,310
2016-03-19T12:12:45.873Z,310
2016-03-19T12:13:45.969Z,315
2016-03-19T12:14:45.894Z,325
2016-03-19T12:15:45.896Z,330
2016-03-19T12:16:45.883Z,330
2016-03-19T12:17:45.901Z,330
2016-03-19T12:18:45.889Z,335
2016-03-19T12:19:45.891Z,340
2016-03-19T12:20:45.910Z,355
2016-03-19T12:21:45.880Z,360
2016-03-19T12:22:45.899Z,375
2016-03-19T12:23:45.902Z,385
2016-03-19T12:24:45.921Z,395
2016-03-19T12:25:45.907Z,395
2016-03-19T12:26:45.893Z,395
2016-03-19T12:27:45.882Z,380
2016-03-19T12:28:45.852Z,365
2016-03-19T12:29:45.887Z,360
2016-03-19T12:30:45.874Z,360
2016-03-19T12:31:45.876Z,360
2016-03-19T12:32:45.910Z,355
2016-03-19T12:33:45.865Z,360
2016-03-19T12:34:45.901Z,365
2016-03-19T12:35:45.731Z,380
2016-03-19T12:36:45.905Z,395
2016-03-19T12:38:00.517Z,415
2016-03-19T12:38:46.458Z,435
2016-03-19T12:40:00.914Z,435
2016-03-19T12:41:00.104Z,435
2016-03-19T12:42:01.637Z,435
2016-03-19T12:42:47.156Z,440
2016-03-19T12:43:47.252Z,445
2016-03-19T12:44:47.271Z,445
2016-03-19T12:45:46.477Z,450
2016-03-19T12:46:47.057Z,450
2016-03-19T12:48:00.373Z,460
2016-03-19T12:49:00.078Z,475
2016-03-19T12:49:46.659Z,490
2016-03-19T12:50:45.881Z,490
2016-03-19T12:52:03.664Z,480
2016-03-19T12:52:47.416Z,475
2016-03-19T12:53:46.202Z,465
2016-03-19T12:54:46.891Z,450
2016-03-19T12:55:46.254Z,445
2016-03-19T12:56:45.974Z,445
2016-03-19T12:57:46.399Z,420
2016-03-19T12:58:45.887Z,395
2016-03-19T12:59:45.904Z,380
2016-03-19T13:00:45.877Z,370
2016-03-19T13:01:45.895Z,360
2016-03-19T13:02:45.913Z,350
2016-03-19T13:03:45.900Z,350
2016-03-19T13:04:45.871Z,350
2016-03-19T13:05:45.921Z,345
2016-03-19T13:06:45.876Z,345
2016-03-19T13:07:45.895Z,345
2016-03-19T13:08:45.882Z,345
2016-03-19T13:09:45.947Z,345
2016-03-19T13:10:45.888Z,340
2016-03-19T13:11:45.922Z,335
2016-03-19T13:12:45.878Z,325
2016-03-19T13:13:45.911Z,315
2016-03-19T13:14:45.898Z,305
2016-03-19T13:15:45.886Z,295
2016-03-19T13:16:45.888Z,290
2016-03-19T13:17:45.906Z,280
2016-03-19T13:18:45.878Z,270
2016-03-19T13:19:45.880Z,265
2016-03-19T13:20:45.914Z,260
2016-03-19T13:21:45.886Z,255
2016-03-19T13:22:45.904Z,260
2016-03-19T13:23:45.907Z,265
2016-03-19T13:24:45.910Z,270
2016-03-19T13:25:45.881Z,275
2016-03-19T13:26:45.915Z,280
2016-03-19T13:27:45.901Z,285
2016-03-19T13:28:45.873Z,295
2016-03-19T13:29:45.891Z,300
2016-03-19T13:30:45.957Z,305
2016-03-19T13:31:45.913Z,320
2016-03-19T13:32:45.899Z,325
2016-03-19T13:33:45.887Z,335
2016-03-19T13:34:45.873Z,345
2016-03-19T13:35:45.877Z,355
2016-03-19T13:36:45.942Z,345
2016-03-19T13:37:45.882Z,315
2016-03-19T13:38:45.915Z,280
2016-03-19T13:39:45.872Z,270
2016-03-19T13:40:45.906Z,270
2016-03-19T13:41:45.893Z,270
2016-03-19T13:42:45.896Z,280
2016-03-19T13:43:45.898Z,285
2016-03-19T13:44:45.917Z,290
2016-03-19T13:45:45.904Z,295
2016-03-19T13:46:45.875Z,300
2016-03-19T13:47:45.861Z,300
2016-03-19T13:48:45.724Z,295
2016-03-19T13:49:45.883Z,300
2016-03-19T13:50:45.933Z,305
2016-03-19T13:51:45.873Z,330
2016-03-19T13:52:45.736Z,355
2016-03-19T13:53:45.909Z,355
2016-03-19T13:54:45.896Z,350
2016-03-19T13:55:45.883Z,345
2016-03-19T13:57:14.277Z,340
2016-03-19T13:58:01.670Z,335
2016-03-19T13:58:45.876Z,325
2016-03-19T13:59:45.894Z,315
2016-03-19T14:00:47.053Z,305
2016-03-19T14:01:47.603Z,295
2016-03-19T14:02:47.855Z,275
2016-03-19T14:03:46.890Z,260
2016-03-19T14:04:46.736Z,245
2016-03-19T14:05:46.488Z,235
2016-03-19T14:06:46.523Z,230
2016-03-19T14:07:45.900Z,235
2016-03-19T14:08:45.950Z,240
2016-03-19T14:09:46.078Z,245
2016-03-19T14:11:00.987Z,245
2016-03-19T14:11:45.864Z,245
2016-03-19T14:12:46.586Z,235